createdAt,value
2018-03-20T00:00:00.121Z,23.30
2018-03-20T00:02:28.936Z,23.83
2018-03-20T00:04:57.768Z,22.67
2018-03-20T00:07:25.837Z,20.13
2018-03-20T00:09:54.660Z,20.40
2018-03-20T00:12:22.733Z,22.13
2018-03-20T00:14:50.781Z,24.63
2018-03-20T00:17:18.825Z,20.20
2018-03-20T00:19:46.893Z,22.50
2018-03-20T00:22:14.959Z,20.13
2018-03-20T00:24:43.025Z,22.63
2018-03-20T00:27:11.076Z,21.40
2018-03-20T00:29:40.037Z,22.13
2018-03-20T00:32:08.857Z,22.97
2018-03-20T00:34:36.907Z,23.93
2018-03-20T00:37:04.965Z,21.50
2018-03-20T00:39:33.017Z,21.93
2018-03-20T00:42:01.080Z,21.17
2018-03-20T00:44:29.918Z,23.83
2018-03-20T00:46:57.970Z,22.17
2018-03-20T00:49:26.015Z,25.63
2018-03-20T00:51:54.084Z,20.17
2018-03-20T00:54:22.141Z,23.13
2018-03-20T00:56:50.183Z,23.87
2018-03-20T00:59:18.240Z,23.60
2018-03-20T01:01:46.305Z,23.33
2018-03-20T01:04:14.369Z,19.97
2018-03-20T01:06:42.421Z,22.00
2018-03-20T01:09:10.549Z,22.17
2018-03-20T01:11:38.767Z,20.47
2018-03-20T01:14:06.898Z,22.33
2018-03-20T01:16:34.922Z,24.47
2018-03-20T01:19:02.998Z,18.47
2018-03-20T01:21:31.045Z,20.87
2018-03-20T01:23:59.885Z,19.63
2018-03-20T01:26:28.061Z,20.47
2018-03-20T01:28:56.130Z,18.67
2018-03-20T01:31:24.234Z,20.93
2018-03-20T01:33:52.318Z,18.70
2018-03-20T01:36:20.370Z,20.63
2018-03-20T01:38:49.198Z,22.97
2018-03-20T01:41:17.250Z,20.03
2018-03-20T01:43:46.189Z,18.23
2018-03-20T01:46:14.247Z,22.27
2018-03-20T01:48:43.078Z,19.07
2018-03-20T01:51:11.129Z,18.57
2018-03-20T01:56:14.273Z,20.70
2018-03-20T01:58:43.105Z,19.67
2018-03-20T02:01:11.161Z,20.80
2018-03-20T02:03:40.007Z,21.03
2018-03-20T02:06:08.050Z,23.10
2018-03-20T02:08:36.116Z,22.93
2018-03-20T02:11:04.930Z,21.50
2018-03-20T02:13:33.771Z,23.17
2018-03-20T02:16:01.814Z,24.37
2018-03-20T02:18:30.661Z,20.43
2018-03-20T02:20:58.720Z,22.50
2018-03-20T02:23:26.753Z,24.87
2018-03-20T02:25:54.837Z,22.10
2018-03-20T02:28:22.990Z,24.07
2018-03-20T02:30:51.058Z,21.67
2018-03-20T02:33:19.154Z,24.10
2018-03-20T02:35:47.214Z,23.37
2018-03-20T02:38:16.086Z,22.60
2018-03-20T02:40:44.149Z,23.87
2018-03-20T02:43:12.214Z,22.30
2018-03-20T02:45:40.529Z,21.67
2018-03-20T02:48:08.597Z,22.40
2018-03-20T02:50:36.721Z,22.77
2018-03-20T02:53:04.773Z,24.03
2018-03-20T02:55:32.820Z,24.97
2018-03-20T02:58:00.890Z,22.57
2018-03-20T03:00:29.722Z,26.53
2018-03-20T03:02:57.793Z,25.37
2018-03-20T03:05:25.852Z,19.07
2018-03-20T03:07:53.902Z,20.07
2018-03-20T03:10:21.976Z,22.00
2018-03-20T03:12:50.048Z,20.67
2018-03-20T03:15:18.120Z,21.87
2018-03-20T03:17:46.168Z,20.27
2018-03-20T03:20:14.994Z,23.20
2018-03-20T03:22:43.826Z,24.70
2018-03-20T03:25:11.893Z,21.87
2018-03-20T03:27:39.989Z,25.93
2018-03-20T03:30:08.058Z,25.47
2018-03-20T03:32:36.114Z,23.90
2018-03-20T03:35:04.177Z,23.37
2018-03-20T03:37:32.232Z,22.37
2018-03-20T03:40:00.286Z,21.57
2018-03-20T03:42:29.117Z,18.97
2018-03-20T03:44:57.166Z,25.20
2018-03-20T03:47:26.003Z,19.33
2018-03-20T03:49:54.075Z,21.67
2018-03-20T03:52:22.126Z,24.47
2018-03-20T03:54:50.200Z,20.43
2018-03-20T03:57:18.277Z,24.23
2018-03-20T03:59:46.333Z,22.00
2018-03-20T04:02:14.381Z,19.43
2018-03-20T04:04:43.214Z,25.07
2018-03-20T04:07:11.266Z,19.83
2018-03-20T04:09:40.105Z,23.80
2018-03-20T04:12:08.162Z,26.30
2018-03-20T04:14:36.239Z,29.97
2018-03-20T04:17:05.059Z,28.90
2018-03-20T04:19:33.125Z,24.10
2018-03-20T04:22:01.944Z,18.17
2018-03-20T04:24:30.022Z,21.07
2018-03-20T04:26:58.069Z,17.57
2018-03-20T04:29:26.117Z,16.83
2018-03-20T04:31:54.189Z,19.50
2018-03-20T04:34:22.246Z,19.57
2018-03-20T04:36:51.077Z,18.40
2018-03-20T04:39:19.121Z,14.73
2018-03-20T04:41:47.960Z,15.90
2018-03-20T04:44:16.013Z,19.17
2018-03-20T04:46:44.829Z,14.93
2018-03-20T04:49:13.661Z,16.77
2018-03-20T04:51:41.738Z,20.53
2018-03-20T04:54:09.790Z,19.93
2018-03-20T04:56:38.606Z,21.83
2018-03-20T04:59:06.669Z,20.70
2018-03-20T05:01:35.507Z,17.17
2018-03-20T05:04:03.568Z,16.33
2018-03-20T05:06:32.389Z,15.53
2018-03-20T05:09:00.458Z,18.43
2018-03-20T05:11:29.274Z,20.43
2018-03-20T05:13:57.338Z,14.63
2018-03-20T05:16:26.149Z,17.00
2018-03-20T05:22:16.225Z,17.77
2018-03-20T05:24:44.301Z,17.37
2018-03-20T05:27:12.358Z,18.40
2018-03-20T05:29:41.172Z,14.00
2018-03-20T05:32:09.230Z,14.17
2018-03-20T05:34:38.069Z,19.10
2018-03-20T05:37:06.133Z,15.87
2018-03-20T05:39:34.206Z,16.30
2018-03-20T05:42:03.024Z,18.20
2018-03-20T05:44:31.107Z,19.10
2018-03-20T05:50:08.558Z,18.10
2018-03-20T05:52:36.634Z,17.33
2018-03-20T05:55:04.686Z,18.70
2018-03-20T05:57:32.733Z,17.20
2018-03-20T06:00:00.793Z,15.27
2018-03-20T06:02:28.851Z,18.60
2018-03-20T06:04:57.681Z,19.73
2018-03-20T06:07:25.733Z,20.83
2018-03-20T06:09:54.566Z,17.77
2018-03-20T06:12:22.626Z,20.40
2018-03-20T06:14:51.454Z,21.03
2018-03-20T06:17:19.553Z,21.80
2018-03-20T06:19:47.627Z,21.40
2018-03-20T06:22:15.671Z,22.03
2018-03-20T06:24:43.793Z,23.90
2018-03-20T06:27:11.794Z,22.50
2018-03-20T06:29:39.867Z,19.80
2018-03-20T06:32:07.921Z,22.00
2018-03-20T06:34:36.765Z,19.10
2018-03-20T06:37:04.822Z,20.53
2018-03-20T06:39:32.877Z,20.00
2018-03-20T06:42:01.009Z,21.70
2018-03-20T06:44:29.065Z,23.23
2018-03-20T06:46:57.899Z,19.90
2018-03-20T06:49:25.969Z,19.10
2018-03-20T06:51:54.016Z,16.27
2018-03-20T06:54:22.086Z,22.17
2018-03-20T06:56:50.950Z,18.17
2018-03-20T06:59:18.963Z,19.63
2018-03-20T07:01:47.026Z,20.80
2018-03-20T07:04:15.097Z,21.03
2018-03-20T07:06:43.443Z,23.10
2018-03-20T07:09:11.595Z,20.63
2018-03-20T07:11:39.638Z,18.70
2018-03-20T07:14:08.470Z,22.73
2018-03-20T07:16:36.532Z,18.97
2018-03-20T07:19:04.593Z,20.07
2018-03-20T07:21:33.413Z,23.73
2018-03-20T07:24:01.490Z,20.87
2018-03-20T07:26:30.306Z,23.13
2018-03-20T07:28:58.378Z,22.63
2018-03-20T07:31:27.194Z,25.20
2018-03-20T07:33:55.261Z,26.33
2018-03-20T07:36:24.096Z,24.47
2018-03-20T07:38:52.167Z,24.63
2018-03-20T07:41:20.213Z,24.97
2018-03-20T07:43:49.045Z,26.90
2018-03-20T07:46:17.102Z,26.07
2018-03-20T07:48:45.338Z,28.73
2018-03-20T07:51:13.451Z,25.03
2018-03-20T07:53:41.708Z,21.50
2018-03-20T07:56:09.762Z,24.40
2018-03-20T07:58:38.598Z,24.40
2018-03-20T08:01:06.664Z,23.97
2018-03-20T08:03:34.763Z,21.80
2018-03-20T08:06:02.839Z,25.40
2018-03-20T08:08:30.913Z,23.83
2018-03-20T08:10:58.965Z,23.70
2018-03-20T08:13:27.014Z,18.77
2018-03-20T08:15:55.078Z,17.23
2018-03-20T08:18:23.219Z,17.73
2018-03-20T08:20:52.054Z,17.60
2018-03-20T08:23:20.874Z,16.93
2018-03-20T08:25:48.937Z,19.50
2018-03-20T08:28:17.765Z,17.43
2018-03-20T08:30:46.012Z,19.63
2018-03-20T08:33:14.055Z,18.00
2018-03-20T08:35:42.115Z,16.30
2018-03-20T08:38:10.165Z,19.27
2018-03-20T08:40:38.974Z,19.67
2018-03-20T08:43:07.805Z,18.23
2018-03-20T08:45:35.861Z,18.20
2018-03-20T08:48:04.691Z,17.20
2018-03-20T08:50:32.758Z,20.67
2018-03-20T08:53:01.566Z,17.03
2018-03-20T08:55:30.390Z,20.70
2018-03-20T08:57:58.437Z,16.33
2018-03-20T09:00:27.299Z,15.57
2018-03-20T09:02:55.330Z,14.93
2018-03-20T09:05:24.137Z,13.40
2018-03-20T09:07:52.962Z,11.83
2018-03-20T09:10:20.997Z,14.53
2018-03-20T09:12:49.066Z,13.70
2018-03-20T09:15:17.129Z,17.67
2018-03-20T09:17:45.174Z,15.53
2018-03-20T09:20:13.980Z,15.20
2018-03-20T09:22:42.888Z,16.23
2018-03-20T09:25:11.674Z,16.27
2018-03-20T09:27:39.729Z,14.00
2018-03-20T09:30:07.774Z,16.97
2018-03-20T09:32:35.832Z,17.30
2018-03-20T09:35:04.653Z,13.27
2018-03-20T09:37:32.709Z,12.63
2018-03-20T09:40:01.923Z,14.70
2018-03-20T09:42:30.055Z,17.57
2018-03-20T09:44:58.392Z,14.07
2018-03-20T09:47:27.262Z,12.37
2018-03-20T09:49:55.310Z,12.67
2018-03-20T09:52:23.401Z,12.73
2018-03-20T09:54:51.519Z,13.67
2018-03-20T09:57:19.669Z,15.07
2018-03-20T09:59:47.721Z,14.03
2018-03-20T10:02:16.972Z,14.30
2018-03-20T10:04:45.124Z,18.17
2018-03-20T10:07:13.202Z,10.87
2018-03-20T10:09:41.294Z,11.77
2018-03-20T10:12:10.141Z,11.97
2018-03-20T10:14:38.217Z,10.37
2018-03-20T10:17:06.281Z,13.63
2018-03-20T10:19:35.081Z,10.60
2018-03-20T10:22:03.137Z,14.30
2018-03-20T10:24:31.194Z,13.40
2018-03-20T10:26:59.263Z,12.03
2018-03-20T10:29:27.326Z,15.90
2018-03-20T10:31:55.374Z,15.57
2018-03-20T10:34:23.530Z,13.43
2018-03-20T10:36:51.577Z,12.63
2018-03-20T10:39:19.618Z,20.10
2018-03-20T10:41:47.680Z,12.63
2018-03-20T10:44:15.733Z,15.70
2018-03-20T10:46:43.849Z,14.33
2018-03-20T10:49:11.913Z,13.47
2018-03-20T10:51:39.953Z,14.10
2018-03-20T10:54:08.050Z,15.03
2018-03-20T10:56:36.874Z,12.93
2018-03-20T10:59:04.918Z,13.17
2018-03-20T11:01:33.001Z,12.40
2018-03-20T11:04:01.039Z,15.03
2018-03-20T11:06:29.110Z,17.53
2018-03-20T11:08:57.170Z,14.70
2018-03-20T11:11:25.214Z,12.13
2018-03-20T11:13:53.282Z,19.63
2018-03-20T11:16:21.313Z,14.20
2018-03-20T11:18:49.494Z,13.10
2018-03-20T11:21:17.553Z,12.23
2018-03-20T11:23:45.621Z,14.60
2018-03-20T11:26:13.694Z,13.30
2018-03-20T11:28:41.790Z,14.73
2018-03-20T11:31:09.864Z,14.57
2018-03-20T11:33:37.909Z,17.03
2018-03-20T11:36:05.953Z,13.87
2018-03-20T11:38:34.024Z,16.90
2018-03-20T11:41:02.105Z,12.90
2018-03-20T11:43:30.142Z,12.20
2018-03-20T11:45:58.201Z,13.00
2018-03-20T11:48:26.261Z,15.63
2018-03-20T11:50:54.404Z,12.03
2018-03-20T11:53:22.480Z,13.47
2018-03-20T11:55:50.523Z,14.73
2018-03-20T11:58:18.569Z,12.23
2018-03-20T12:00:47.396Z,14.13
2018-03-20T12:03:15.443Z,14.27
2018-03-20T12:05:43.497Z,15.53
2018-03-20T12:08:29.331Z,14.87
2018-03-20T12:10:57.389Z,12.70
2018-03-20T12:13:25.430Z,16.90
2018-03-20T12:15:53.493Z,15.00
2018-03-20T12:18:22.318Z,17.87
2018-03-20T12:20:50.629Z,14.23
2018-03-20T12:23:18.673Z,14.30
2018-03-20T12:25:47.496Z,14.60
2018-03-20T12:28:15.562Z,14.20
2018-03-20T12:30:44.371Z,13.80
2018-03-20T12:33:13.193Z,15.77
2018-03-20T12:35:41.241Z,13.53
2018-03-20T12:38:10.070Z,15.80
2018-03-20T12:40:38.111Z,14.17
2018-03-20T12:43:06.172Z,13.73
2018-03-20T12:45:34.218Z,17.13
2018-03-20T12:48:02.276Z,14.53
2018-03-20T12:50:31.082Z,11.93
2018-03-20T12:52:59.907Z,11.63
2018-03-20T12:55:27.977Z,14.00
2018-03-20T12:57:56.782Z,14.43
2018-03-20T13:00:24.859Z,19.73
2018-03-20T13:02:52.897Z,11.87
2018-03-20T13:05:20.942Z,15.77
2018-03-20T13:07:49.001Z,13.50
2018-03-20T13:10:17.814Z,15.13
2018-03-20T13:12:46.646Z,16.20
2018-03-20T13:15:14.692Z,12.40
2018-03-20T13:17:43.517Z,17.33
2018-03-20T13:20:11.617Z,15.17
2018-03-20T13:22:39.671Z,17.97
2018-03-20T13:25:08.520Z,14.43
2018-03-20T13:27:36.570Z,16.20
2018-03-20T13:30:04.619Z,15.27
2018-03-20T13:32:32.686Z,16.90
2018-03-20T13:35:00.730Z,17.07
2018-03-20T13:37:28.798Z,20.73
2018-03-20T13:39:57.622Z,17.83
2018-03-20T13:42:25.694Z,17.30
2018-03-20T13:44:53.810Z,17.70
2018-03-20T13:47:21.859Z,16.77
2018-03-20T13:49:50.675Z,14.67
2018-03-20T13:52:18.745Z,16.17
2018-03-20T13:54:47.581Z,18.63
2018-03-20T13:57:15.641Z,13.93
2018-03-20T13:59:43.690Z,16.27
2018-03-20T14:02:11.765Z,17.47
2018-03-20T14:04:39.866Z,16.07
2018-03-20T14:07:07.866Z,16.57
2018-03-20T14:09:36.702Z,17.90
2018-03-20T14:12:04.745Z,16.83
2018-03-20T14:14:33.567Z,20.97
2018-03-20T14:17:01.637Z,16.93
2018-03-20T14:19:30.457Z,21.13
2018-03-20T14:21:58.507Z,17.63
2018-03-20T14:24:26.570Z,16.20
2018-03-20T14:26:54.692Z,18.60
2018-03-20T14:29:23.522Z,19.60
2018-03-20T14:31:51.656Z,19.33
2018-03-20T14:34:19.711Z,19.70
2018-03-20T14:36:47.777Z,19.53
2018-03-20T14:39:15.862Z,22.70
2018-03-20T14:41:43.947Z,23.27
2018-03-20T14:44:11.998Z,26.47
2018-03-20T14:46:40.046Z,29.50
2018-03-20T14:49:08.117Z,32.23
2018-03-20T14:51:36.157Z,23.67
2018-03-20T14:54:04.205Z,31.77
2018-03-20T14:56:33.777Z,26.60
2018-03-20T14:59:01.862Z,26.90
2018-03-20T15:01:29.906Z,29.37
2018-03-20T15:03:57.961Z,22.93
2018-03-20T15:06:26.021Z,23.77
2018-03-20T15:08:54.093Z,23.63
2018-03-20T15:11:22.933Z,21.90
2018-03-20T15:13:50.974Z,24.57
2018-03-20T15:16:19.033Z,27.17
2018-03-20T15:18:47.098Z,28.03
2018-03-20T15:21:15.147Z,24.43
2018-03-20T15:23:43.205Z,24.03
2018-03-20T15:26:12.045Z,22.37
2018-03-20T15:28:40.135Z,20.43
2018-03-20T15:31:08.177Z,25.97
2018-03-20T15:33:36.230Z,26.30
2018-03-20T15:36:05.059Z,24.13
2018-03-20T15:38:33.877Z,26.60
2018-03-20T15:41:01.946Z,24.07
2018-03-20T15:43:30.774Z,23.80
2018-03-20T15:45:58.839Z,22.03
2018-03-20T15:48:27.678Z,19.93
2018-03-20T15:50:55.879Z,23.30
2018-03-20T15:53:23.930Z,20.07
2018-03-20T15:55:51.998Z,17.73
2018-03-20T15:58:20.846Z,19.30
2018-03-20T16:00:48.873Z,16.30
2018-03-20T16:03:17.685Z,15.80
2018-03-20T16:05:46.522Z,18.10
2018-03-20T16:08:14.569Z,14.90
2018-03-20T16:10:43.385Z,15.87
2018-03-20T16:13:11.434Z,15.23
2018-03-20T16:15:39.498Z,15.27
2018-03-20T16:18:07.546Z,14.87
2018-03-20T16:20:35.605Z,19.23
2018-03-20T16:23:04.453Z,18.67
2018-03-20T16:25:32.493Z,17.30
2018-03-20T16:28:01.303Z,20.07
2018-03-20T16:30:29.361Z,17.17
2018-03-20T16:32:57.410Z,16.47
2018-03-20T16:35:25.474Z,20.20
2018-03-20T16:37:53.525Z,20.83
2018-03-20T16:40:22.350Z,18.10
2018-03-20T16:42:50.448Z,18.80
2018-03-20T16:45:18.486Z,19.77
2018-03-20T16:47:46.529Z,20.37
2018-03-20T16:50:14.586Z,17.50
2018-03-20T16:52:42.650Z,20.13
2018-03-20T16:55:11.469Z,16.23
2018-03-20T16:57:40.294Z,17.40
2018-03-20T17:00:08.347Z,16.17
2018-03-20T17:02:37.169Z,16.80
2018-03-20T17:05:05.222Z,14.27
2018-03-20T17:07:34.042Z,13.83
2018-03-20T17:10:02.090Z,11.90
2018-03-20T17:12:30.226Z,8.47
2018-03-20T17:14:58.262Z,7.60
2018-03-20T17:17:27.879Z,5.60
2018-03-20T17:19:55.885Z,6.07
2018-03-20T17:22:24.698Z,7.47
2018-03-20T17:24:53.536Z,6.70
2018-03-20T17:27:21.572Z,11.00
2018-03-20T17:29:50.377Z,7.47
2018-03-20T17:32:19.205Z,10.40
2018-03-20T17:34:47.257Z,7.10
2018-03-20T17:37:16.095Z,5.90
2018-03-20T17:39:44.147Z,7.03
2018-03-20T17:42:12.975Z,7.57
2018-03-20T17:44:41.051Z,7.40
2018-03-20T17:47:09.119Z,6.43
2018-03-20T17:49:37.930Z,5.37
2018-03-20T17:52:06.749Z,7.03
2018-03-20T17:54:34.846Z,5.87
2018-03-20T17:57:02.910Z,5.77
2018-03-20T17:59:30.949Z,7.10
2018-03-20T18:01:59.007Z,8.40
2018-03-20T18:04:27.072Z,5.10
2018-03-20T18:06:55.133Z,5.93
2018-03-20T18:09:23.969Z,5.57
2018-03-20T18:11:52.006Z,7.70
2018-03-20T18:14:20.065Z,10.57
2018-03-20T18:16:48.109Z,5.40
2018-03-20T18:19:16.165Z,5.73
2018-03-20T18:21:44.978Z,6.87
2018-03-20T18:24:13.803Z,7.33
2018-03-20T18:26:41.849Z,6.10
2018-03-20T18:29:09.906Z,9.73
2018-03-20T18:31:37.961Z,6.70
2018-03-20T18:34:06.012Z,6.67
2018-03-20T18:36:34.841Z,7.70
2018-03-20T18:39:02.910Z,5.77
2018-03-20T18:41:31.713Z,6.07
2018-03-20T18:44:00.549Z,7.50
2018-03-20T18:46:28.606Z,9.10
2018-03-20T18:48:56.653Z,7.07
2018-03-20T18:51:25.471Z,5.30
2018-03-20T18:53:53.601Z,7.10
2018-03-20T18:56:21.646Z,5.93
2018-03-20T18:58:50.471Z,7.53
2018-03-20T19:01:18.561Z,5.20
2018-03-20T19:03:46.618Z,6.57
2018-03-20T19:06:15.421Z,5.90
2018-03-20T19:08:44.353Z,9.10
2018-03-20T19:11:12.402Z,7.80
2018-03-20T19:13:40.437Z,8.80
2018-03-20T19:16:08.509Z,6.73
2018-03-20T19:18:36.570Z,6.67
2018-03-20T19:21:05.377Z,8.40
2018-03-20T19:23:34.196Z,7.80
2018-03-20T19:26:02.263Z,6.20
2018-03-20T19:28:31.074Z,7.40
2018-03-20T19:30:59.106Z,7.00
2018-03-20T19:33:27.250Z,6.43
2018-03-20T19:35:55.343Z,6.30
2018-03-20T19:38:23.374Z,8.57
2018-03-20T19:40:51.429Z,6.40
2018-03-20T19:43:19.473Z,6.70
2018-03-20T19:45:48.300Z,7.90
2018-03-20T19:48:16.365Z,7.57
2018-03-20T19:50:44.408Z,8.33
2018-03-20T19:53:12.470Z,6.10
2018-03-20T19:55:40.514Z,9.07
2018-03-20T19:58:09.321Z,8.73
2018-03-20T20:00:37.377Z,7.77
2018-03-20T20:03:05.425Z,8.20
2018-03-20T20:05:33.496Z,6.37
2018-03-20T20:08:01.577Z,6.00
2018-03-20T20:10:29.647Z,6.70
2018-03-20T20:12:57.715Z,6.90
2018-03-20T20:15:25.774Z,8.83
2018-03-20T20:17:53.834Z,6.40
2018-03-20T20:20:21.908Z,6.57
2018-03-20T20:22:49.953Z,6.90
2018-03-20T20:25:18.773Z,8.53
2018-03-20T20:27:46.827Z,8.37
2018-03-20T20:30:14.881Z,8.83
2018-03-20T20:32:42.946Z,6.20
2018-03-20T20:35:10.998Z,8.73
2018-03-20T20:37:39.830Z,6.93
2018-03-20T20:40:07.910Z,7.50
2018-03-20T20:42:35.957Z,7.77
2018-03-20T20:45:04.042Z,7.67
2018-03-20T20:47:32.089Z,9.40
2018-03-20T20:50:00.137Z,7.13
2018-03-20T20:52:28.211Z,7.00
2018-03-20T20:54:57.041Z,8.57
2018-03-20T20:57:25.101Z,8.27
2018-03-20T20:59:53.918Z,8.40
2018-03-20T21:02:21.980Z,8.37
2018-03-20T21:04:50.801Z,8.50
2018-03-20T21:07:18.869Z,8.90
2018-03-20T21:09:47.681Z,12.00
2018-03-20T21:12:15.755Z,9.63
2018-03-20T21:14:44.573Z,10.30
2018-03-20T21:17:12.651Z,7.90
2018-03-20T21:19:41.469Z,11.83
2018-03-20T21:22:09.533Z,9.93
2018-03-20T21:24:38.459Z,11.67
2018-03-20T21:27:07.285Z,13.87
2018-03-20T21:29:35.333Z,7.73
2018-03-20T21:32:03.390Z,8.17
2018-03-20T21:34:31.465Z,8.13
2018-03-20T21:37:00.459Z,7.53
2018-03-20T21:39:28.589Z,6.70
2018-03-20T21:41:57.410Z,8.10
2018-03-20T21:44:25.507Z,7.00
2018-03-20T21:46:54.298Z,5.97
2018-03-20T21:49:22.363Z,7.13
2018-03-20T21:51:51.194Z,6.47
2018-03-20T21:54:19.245Z,6.70
2018-03-20T21:56:48.082Z,5.97
2018-03-20T21:59:16.158Z,6.87
2018-03-20T22:01:44.246Z,6.50
2018-03-20T22:04:12.297Z,9.03
2018-03-20T22:06:41.146Z,14.03
2018-03-20T22:09:09.210Z,8.57
2018-03-20T22:11:37.270Z,15.23
2018-03-20T22:14:06.113Z,10.67
2018-03-20T22:16:34.162Z,8.07
2018-03-20T22:19:03.201Z,7.67
2018-03-20T22:21:31.253Z,6.67
2018-03-20T22:24:00.079Z,7.70
2018-03-20T22:26:28.161Z,10.07
2018-03-20T22:28:56.217Z,7.43
2018-03-20T22:31:24.260Z,6.00
2018-03-20T22:33:52.330Z,8.30
2018-03-20T22:36:20.394Z,6.73
2018-03-20T22:38:48.438Z,8.73
2018-03-20T22:41:16.510Z,6.53
2018-03-20T22:43:44.564Z,6.73
2018-03-20T22:46:12.609Z,6.83
2018-03-20T22:48:41.433Z,7.03
2018-03-20T22:51:09.486Z,7.43
2018-03-20T22:53:37.549Z,7.27
2018-03-20T22:56:05.600Z,7.23
2018-03-20T22:58:33.674Z,6.53
2018-03-20T23:01:01.780Z,7.77
2018-03-20T23:03:29.857Z,7.73
2018-03-20T23:05:57.909Z,8.00
2018-03-20T23:08:26.727Z,9.47
2018-03-20T23:10:54.802Z,8.13
2018-03-20T23:13:23.626Z,9.80
2018-03-20T23:15:51.688Z,8.47
2018-03-20T23:18:20.513Z,9.73
2018-03-20T23:20:48.569Z,10.30
2018-03-20T23:23:17.396Z,8.43
2018-03-20T23:25:45.477Z,11.43
2018-03-20T23:28:13.526Z,11.23
2018-03-20T23:30:41.573Z,8.13
2018-03-20T23:33:09.641Z,8.10
2018-03-20T23:35:37.693Z,8.07
2018-03-20T23:38:05.757Z,9.60
2018-03-20T23:40:33.809Z,6.70
2018-03-20T23:43:01.905Z,9.20
2018-03-20T23:45:29.950Z,7.27
2018-03-20T23:47:58.046Z,7.10
2018-03-20T23:50:26.111Z,8.53
2018-03-20T23:52:54.161Z,7.97
2018-03-20T23:55:22.235Z,6.53
2018-03-20T23:57:50.381Z,7.47
